Historyczne dane pomiarowe

Dodano dane terminowe – wersja testowa.

Dane z okresu 1951-2019

Wersja bazy: 1.34 [2019-03-16, lista zmian], aktualizacja planowana na 2019-04-15

Dane meteo z obszaru Polski uzyskane na podstawie danych udostępnionych przez Instytut Meteorologii i Gospodarki Wodnej – Państwowy Instytut Badawczy.

 

Wybierz Datę:    

       

TemperaturaWilgotnośćZachmurzenieWiatrCiśnienieWidzialnośćZjawiska
 Data    tng td wb rh cc ccl cl cm ch dir g1 g2 mslp ppp      
1994-07-27 00:00:00 17.4--- 14.8 15.885wxwxwxwx0wx--1020.1 979.8 0.0---wx
1994-07-27 01:00:00 17.8--- 14.6 15.881wxwxwxwx0wx--1019.8 979.5----wx
1994-07-27 02:00:00 17.6--- 14.7 15.883wxwxwxwx0wx--1019.8 979.5----wx
1994-07-27 03:00:00 17.4--- 14.8 15.885wxwxwxwx0wx--1019.8 979.5----wx
1994-07-27 04:00:00 17.4--- 14.8 15.885wxwxwxwx0wx--1019.8 979.5----wx
1994-07-27 05:00:00 17.6--- 14.7 15.883wxwxwx0wx--1019.9 979.6----wx
1994-07-27 06:00:00 18.5--- 16.9 17.591wxwxwx0wx--1020.1 979.9 0.0---wx
1994-07-27 07:00:00 19.6--- 16.0 17.380wxwxwx1wx--1020.1 980.1----wx
1994-07-27 08:00:00 20.5--- 16.4 17.978wxwxwx0wx--1020.0 980.1----wx
1994-07-27 09:00:00 20.5--- 16.9 18.280wxwxwx1wx--1020.1 980.2----wxw1
1994-07-27 10:00:00 20.7--- 18.9 19.589wxwxwx0wx--1020.1 980.2----wxw1
1994-07-27 11:00:00 21.5--- 18.5 19.583wxwxwx0wx--1019.5 979.7----wx
1994-07-27 12:00:00 23.9--- 17.7 19.868wxwxwx0wx--1018.9 979.5 0.4---wxw1
1994-07-27 13:00:00 26.2--- 18.0 20.761wxwxwxwx0wx--1017.9 978.8----wx
1994-07-27 14:00:00 30.5--- 14.3 20.137wxwxwxwx0wx--1016.8 978.3----wx
1994-07-27 15:00:00 30.3--- 15.8 20.842wxwxwxwxwx0wx--1016.5 978.0----wx
1994-07-27 16:00:00 30.2--- 16.6 21.244wxwxwxwxwx0wx--1016.2 977.7----wx
1994-07-27 17:00:00 29.5--- 13.7 19.538wxwxwx0wx--1016.4 977.8----wx
1994-07-27 18:00:00 26.4--- 16.3 19.854wxwxwx0wx--1017.1 978.1 0.0---wx
1994-07-27 19:00:00 23.0--- 16.3 18.766wxwxwxwx0wx--1018.0 978.5----wx
1994-07-27 20:00:00 20.2--- 15.8 17.476wxwxwxwx0wx--1018.6 978.7----wx
1994-07-27 21:00:00 18.2--- 15.2 16.382wxwx0wx--1019.2 979.0----wx
1994-07-27 22:00:00 17.2--- 14.4 15.584wxwxwx0wx--1019.5 979.2----wx
1994-07-27 23:00:00 16.6--- 14.8 15.589wxwxwx0wx--1019.6 979.2----wx

 

Źródłem pochodzenia danych jest Instytut Meteorologii i Gospodarki Wodnej – Państwowy Instytut Badawczy. Dane Instytutu Meteorologii i Gospodarki Wodnej – Państwowego Instytutu Badawczego zostały przetworzone.

Dane źródłowe można odnaleźć na stronie https://dane.imgw.pl